Big Bear Station Historical Data
Daily Summary for October 15, 2017 Units:  English    Metric   Both
Next Day »
Daily Weekly Monthly Yearly Custom
  High: Low: Average:
Temperature: 71.1 °F 28.8 °F 46.4 °F
Dew Point: 31.4 °F 11.5 °F 19.9 °F
Humidity: 79% 12% 42%
Wind Speed: 4.7mph 0.0mph 0.8mph
Wind Gust: -999.0mph - -
Wind- - WNW
Pressure: 30.39 in 30.33 in -
Precipitation: 0.00 in    
Historical Graphs
 
 
Tabular Data for October 15, 2017
Time Temperature Dew Point Pressure Wind Wind Speed Wind Gust Humidity Rainfall Rate (Hourly)
00:02 34.9 °F 11.8 °F 30.33 in Calm   -999.0 mph 38% 0 in
00:17 34.5 °F 11.5 °F 30.33 in Calm   -999.0 mph 38% 0 in
00:33 34.0 °F 11.6 °F 30.33 in Calm   -999.0 mph 39% 0 in
00:48 33.4 °F 12.7 °F 30.34 in Calm   -999.0 mph 42% 0 in
01:03 33.4 °F 14.8 °F 30.34 in Calm   -999.0 mph 46% 0 in
01:18 32.7 °F 13.2 °F 30.34 in Calm   -999.0 mph 44% 0 in
01:33 32.0 °F 13.5 °F 30.34 in Calm   -999.0 mph 46% 0 in
01:49 31.6 °F 18.5 °F 30.34 in Calm   -999.0 mph 58% 0 in
02:04 31.3 °F 20.2 °F 30.35 in Calm   -999.0 mph 63% 0 in
02:19 30.9 °F 19.4 °F 30.35 in Calm   -999.0 mph 62% 0 in
02:34 30.6 °F 19.5 °F 30.34 in Calm   -999.0 mph 63% 0 in
02:49 30.6 °F 18.7 °F 30.34 in Calm   -999.0 mph 61% 0 in
03:05 30.0 °F 20.0 °F 30.34 in Calm   -999.0 mph 66% 0 in
03:20 30.6 °F 22.0 °F 30.34 in Calm   -999.0 mph 70% 0 in
03:35 29.7 °F 21.8 °F 30.34 in Calm   -999.0 mph 72% 0 in
03:50 29.8 °F 21.5 °F 30.33 in Calm   -999.0 mph 71% 0 in
04:06 29.3 °F 22.4 °F 30.33 in Calm   -999.0 mph 75% 0 in
04:21 30.0 °F 21.7 °F 30.34 in Calm   -999.0 mph 71% 0 in
04:36 29.5 °F 22.2 °F 30.34 in Calm   -999.0 mph 74% 0 in
04:51 29.3 °F 21.7 °F 30.34 in Calm   -999.0 mph 73% 0 in
05:06 29.7 °F 21.4 °F 30.34 in Calm   -999.0 mph 71% 0 in
05:22 29.1 °F 21.2 °F 30.35 in Calm   -999.0 mph 72% 0 in
05:37 29.1 °F 21.5 °F 30.35 in Calm   -999.0 mph 73% 0 in
05:52 29.3 °F 22.0 °F 30.35 in Calm   -999.0 mph 74% 0 in
06:07 29.5 °F 23.2 °F 30.35 in Calm   -999.0 mph 77% 0 in
06:22 28.8 °F 22.5 °F 30.35 in Calm   -999.0 mph 77% 0 in
06:38 28.9 °F 22.9 °F 30.35 in Calm   -999.0 mph 78% 0 in
06:53 28.9 °F 22.6 °F 30.35 in Calm   -999.0 mph 77% 0 in
07:08 29.1 °F 22.8 °F 30.36 in Calm   -999.0 mph 77% 0 in
07:23 29.5 °F 23.8 °F 30.36 in Calm   -999.0 mph 79% 0 in
07:38 29.7 °F 24.0 °F 30.36 in Calm   -999.0 mph 79% 0 in
07:54 30.2 °F 24.2 °F 30.36 in Calm   -999.0 mph 78% 0 in
08:09 30.7 °F 24.0 °F 30.37 in Calm   -999.0 mph 76% 0 in
08:24 32.2 °F 24.8 °F 30.37 in Calm   -999.0 mph 74% 0 in
08:39 34.9 °F 26.1 °F 30.37 in Calm   -999.0 mph 70% 0 in
08:54 34.5 °F 27.4 °F 30.38 in Calm   -999.0 mph 75% 0 in
09:10 36.5 °F 24.3 °F 30.38 in Calm   -999.0 mph 61% 0 in
09:25 38.7 °F 29.0 °F 30.38 in Calm   -999.0 mph 68% 0 in
09:40 41.9 °F 31.4 °F 30.38 in Calm   -999.0 mph 66% 0 in
09:55 43.9 °F 28.3 °F 30.38 in Calm   -999.0 mph 54% 0 in
10:11 47.1 °F 25.7 °F 30.38 in Calm   -999.0 mph 43% 0 in
10:26 53.2 °F 25.5 °F 30.38 in Calm   -999.0 mph 34% 0 in
10:41 57.6 °F 24.7 °F 30.38 in Calm   -999.0 mph 28% 0 in
10:56 61.3 °F 23.2 °F 30.38 in Calm   -999.0 mph 23% 0 in
11:11 64.8 °F 20.3 °F 30.37 in Calm   -999.0 mph 18% 0 in
11:27 67.8 °F 15.1 °F 30.37 in Calm   -999.0 mph 13% 0 in
11:42 69.1 °F 14.3 °F 30.37 in SW 1.7 mph -999.0 mph 12% 0 in
11:57 69.4 °F 18.1 °F 30.37 in WSW 1.7 mph -999.0 mph 14% 0 in
12:12 69.8 °F 16.7 °F 30.37 in North 4.2 mph -999.0 mph 13% 0 in
12:28 70.0 °F 18.6 °F 30.37 in NW 2.7 mph -999.0 mph 14% 0 in
12:43 70.3 °F 18.8 °F 30.36 in South 2.7 mph -999.0 mph 14% 0 in
12:58 70.7 °F 20.8 °F 30.36 in NNW 4.2 mph -999.0 mph 15% 0 in
13:14 71.1 °F 19.5 °F 30.36 in North 4.7 mph -999.0 mph 14% 0 in
13:29 70.9 °F 20.9 °F 30.36 in NNW 4.7 mph -999.0 mph 15% 0 in
13:44 70.0 °F 20.2 °F 30.35 in WNW 3.7 mph -999.0 mph 15% 0 in
13:59 69.6 °F 19.9 °F 30.35 in NNW 3.7 mph -999.0 mph 15% 0 in
14:15 68.5 °F 20.5 °F 30.35 in WNW 4.2 mph -999.0 mph 16% 0 in
14:30 68.0 °F 21.5 °F 30.34 in NW 4.2 mph -999.0 mph 17% 0 in
14:45 68.7 °F 20.7 °F 30.34 in WNW 3.7 mph -999.0 mph 16% 0 in
15:01 68.9 °F 19.3 °F 30.34 in NNW 4.2 mph -999.0 mph 15% 0 in
15:16 67.5 °F 19.7 °F 30.34 in NW 3.7 mph -999.0 mph 16% 0 in
15:31 67.6 °F 21.2 °F 30.34 in WNW 3.2 mph -999.0 mph 17% 0 in
15:46 67.1 °F 19.4 °F 30.34 in NNW 2.7 mph -999.0 mph 16% 0 in
16:02 66.0 °F 18.5 °F 30.34 in NW 2.7 mph -999.0 mph 16% 0 in
16:17 65.5 °F 20.8 °F 30.34 in NW 2.7 mph -999.0 mph 18% 0 in
16:32 64.8 °F 20.3 °F 30.35 in NNW 2.7 mph -999.0 mph 18% 0 in
16:48 64.4 °F 18.6 °F 30.35 in North 1.7 mph -999.0 mph 17% 0 in
17:18 62.8 °F 19.9 °F 30.35 in Calm   -999.0 mph 19% 0 in
17:33 62.1 °F 16.7 °F 30.35 in West 1.1 mph -999.0 mph 17% 0 in
17:48 60.6 °F 25.5 °F 30.35 in Calm   -999.0 mph 26% 0 in
18:04 58.8 °F 23.0 °F 30.35 in Calm   -999.0 mph 25% 0 in
18:19 56.7 °F 19.3 °F 30.35 in Calm   -999.0 mph 23% 0 in
18:34 55.6 °F 15.1 °F 30.35 in Calm   -999.0 mph 20% 0 in
18:49 54.0 °F 17.0 °F 30.36 in Calm   -999.0 mph 23% 0 in
19:04 52.0 °F 14.3 °F 30.36 in Calm   -999.0 mph 22% 0 in
19:20 50.5 °F 15.0 °F 30.37 in Calm   -999.0 mph 24% 0 in
19:35 49.5 °F 16.9 °F 30.37 in South 1.7 mph -999.0 mph 27% 0 in
19:50 48.6 °F 16.1 °F 30.37 in Calm   -999.0 mph 27% 0 in
20:05 47.5 °F 16.0 °F 30.38 in Calm   -999.0 mph 28% 0 in
20:20 46.6 °F 16.8 °F 30.38 in Calm   -999.0 mph 30% 0 in
20:36 46.2 °F 19.4 °F 30.38 in Calm   -999.0 mph 34% 0 in
20:51 45.5 °F 18.0 °F 30.38 in Calm   -999.0 mph 33% 0 in
21:06 44.8 °F 16.7 °F 30.38 in Calm   -999.0 mph 32% 0 in
21:21 44.2 °F 17.6 °F 30.39 in Calm   -999.0 mph 34% 0 in
21:37 43.3 °F 16.1 °F 30.39 in Calm   -999.0 mph 33% 0 in
21:52 42.8 °F 17.7 °F 30.39 in South 2.2 mph -999.0 mph 36% 0 in
22:07 42.1 °F 18.9 °F 30.39 in Calm   -999.0 mph 39% 0 in
22:22 41.5 °F 18.4 °F 30.39 in Calm   -999.0 mph 39% 0 in
22:37 41.2 °F 18.1 °F 30.39 in Calm   -999.0 mph 39% 0 in
22:53 40.6 °F 15.7 °F 30.39 in Calm   -999.0 mph 36% 0 in
23:08 40.1 °F 17.1 °F 30.39 in Calm   -999.0 mph 39% 0 in
23:23 39.4 °F 18.7 °F 30.39 in Calm   -999.0 mph 43% 0 in
23:38 39.2 °F 19.1 °F 30.39 in Calm   -999.0 mph 44% 0 in
23:53 38.8 °F 17.7 °F 30.39 in Calm   -999.0 mph 42% 0 in
Big Bear CA Weather